createdAt,value
2022-12-24T00:01:34.117Z,22.30
2022-12-24T00:04:02.134Z,22.30
2022-12-24T00:06:29.906Z,22.20
2022-12-24T00:08:57.979Z,22.20
2022-12-24T00:11:25.891Z,22.20
2022-12-24T00:13:53.827Z,22.20
2022-12-24T00:16:21.809Z,22.20
2022-12-24T00:18:49.876Z,22.20
2022-12-24T00:21:17.838Z,22.30
2022-12-24T00:23:45.812Z,22.20
2022-12-24T00:26:14.565Z,22.20
2022-12-24T00:28:42.911Z,22.20
2022-12-24T00:31:17.311Z,22.20
2022-12-24T00:33:48.276Z,22.20
2022-12-24T00:36:16.407Z,22.20
2022-12-24T00:38:44.756Z,22.20
2022-12-24T00:41:29.192Z,22.20
2022-12-24T00:44:12.057Z,22.20
2022-12-24T00:46:41.224Z,22.20
2022-12-24T00:49:11.050Z,22.20
2022-12-24T00:51:39.310Z,22.20
2022-12-24T00:54:07.410Z,22.20
2022-12-24T00:56:35.362Z,22.20
2022-12-24T00:59:03.382Z,22.20
2022-12-24T01:01:31.506Z,22.20
2022-12-24T01:04:18.001Z,22.20
2022-12-24T01:06:45.806Z,22.20
2022-12-24T01:09:14.014Z,22.20
2022-12-24T01:11:42.027Z,22.20
2022-12-24T01:14:09.950Z,22.20
2022-12-24T01:16:37.785Z,22.10
2022-12-24T01:19:05.837Z,22.20
2022-12-24T01:21:33.740Z,22.20
2022-12-24T01:24:01.823Z,22.10
2022-12-24T01:26:29.779Z,22.10
2022-12-24T01:28:57.644Z,22.10
2022-12-24T01:31:25.641Z,22.10
2022-12-24T01:33:53.518Z,22.10
2022-12-24T01:36:21.391Z,22.10
2022-12-24T01:38:49.259Z,22.20
2022-12-24T01:41:38.372Z,22.20
2022-12-24T01:44:36.439Z,22.10
2022-12-24T01:47:07.880Z,22.10
2022-12-24T01:49:38.978Z,22.10
2022-12-24T01:52:20.815Z,22.10
2022-12-24T01:54:55.471Z,22.10
2022-12-24T01:57:31.772Z,22.10
2022-12-24T02:00:06.291Z,22.10
2022-12-24T02:02:35.331Z,22.10
2022-12-24T02:05:18.732Z,22.10
2022-12-24T02:07:47.747Z,22.10
2022-12-24T02:10:17.101Z,22.10
2022-12-24T02:12:46.599Z,22.10
2022-12-24T02:15:17.718Z,22.10
2022-12-24T02:18:05.876Z,22.10
2022-12-24T02:21:04.794Z,22.10
2022-12-24T02:24:02.918Z,22.10
2022-12-24T02:26:58.320Z,22.10
2022-12-24T02:30:00.093Z,22.10
2022-12-24T02:32:37.720Z,22.10
2022-12-24T02:35:42.251Z,22.10
2022-12-24T02:38:16.005Z,22.10
2022-12-24T02:40:53.933Z,22.10
2022-12-24T02:43:31.311Z,22.10
2022-12-24T02:46:08.248Z,22.10
2022-12-24T02:48:38.704Z,22.10
2022-12-24T02:51:09.109Z,22.10
2022-12-24T02:53:38.636Z,22.10
2022-12-24T02:56:35.763Z,22.00
2022-12-24T02:59:21.796Z,22.00
2022-12-24T03:01:55.575Z,22.00
2022-12-24T03:04:40.818Z,22.10
2022-12-24T03:07:11.507Z,22.00
2022-12-24T03:10:02.798Z,22.10
2022-12-24T03:12:47.142Z,22.00
2022-12-24T03:15:17.680Z,22.00
2022-12-24T03:17:49.437Z,22.00
2022-12-24T03:20:25.412Z,22.00
2022-12-24T03:22:53.404Z,22.00
2022-12-24T03:25:24.875Z,22.00
2022-12-24T03:27:53.857Z,22.00
2022-12-24T03:30:21.752Z,22.00
2022-12-24T03:32:49.703Z,22.00
2022-12-24T03:35:17.526Z,22.00
2022-12-24T03:37:45.461Z,22.00
2022-12-24T03:40:13.563Z,22.00
2022-12-24T03:42:41.584Z,22.00
2022-12-24T03:45:10.388Z,22.00
2022-12-24T03:47:38.316Z,22.00
2022-12-24T03:50:07.512Z,22.00
2022-12-24T03:52:35.419Z,22.00
2022-12-24T03:55:03.475Z,22.00
2022-12-24T03:57:31.513Z,22.00
2022-12-24T03:59:59.494Z,22.00
2022-12-24T04:02:27.457Z,22.00
2022-12-24T04:04:55.461Z,22.00
2022-12-24T04:07:23.369Z,22.00
2022-12-24T04:09:51.292Z,22.00
2022-12-24T04:12:19.134Z,22.00
2022-12-24T04:14:47.310Z,22.00
2022-12-24T04:17:15.234Z,22.00
2022-12-24T04:19:44.015Z,22.00
2022-12-24T04:22:12.026Z,22.00
2022-12-24T04:24:39.971Z,22.00
2022-12-24T04:27:07.907Z,22.00
2022-12-24T04:29:35.825Z,22.00
2022-12-24T04:32:03.882Z,22.00
2022-12-24T04:34:32.027Z,22.00
2022-12-24T04:36:59.996Z,22.00
2022-12-24T04:39:27.836Z,22.00
2022-12-24T04:41:55.659Z,21.90
2022-12-24T04:44:23.583Z,22.00
2022-12-24T04:46:51.447Z,22.00
2022-12-24T04:49:19.237Z,21.90
2022-12-24T04:51:47.106Z,22.00
2022-12-24T04:54:15.512Z,21.90
2022-12-24T04:56:43.343Z,21.90
2022-12-24T04:59:11.295Z,21.90
2022-12-24T05:01:39.281Z,22.00
2022-12-24T05:04:07.262Z,21.90
2022-12-24T05:06:35.112Z,21.90
2022-12-24T05:09:03.498Z,21.90
2022-12-24T05:11:31.937Z,21.90
2022-12-24T05:13:59.994Z,21.90
2022-12-24T05:16:28.017Z,21.90
2022-12-24T05:18:55.840Z,21.90
2022-12-24T05:21:24.843Z,21.90
2022-12-24T05:24:12.235Z,21.90
2022-12-24T05:26:42.002Z,21.90
2022-12-24T05:29:12.440Z,21.90
2022-12-24T05:31:41.799Z,21.90
2022-12-24T05:34:10.564Z,21.90
2022-12-24T05:36:38.636Z,21.90
2022-12-24T05:39:13.433Z,21.80
2022-12-24T05:41:43.668Z,21.90
2022-12-24T05:44:11.722Z,21.90
2022-12-24T05:46:39.815Z,21.80
2022-12-24T05:49:07.853Z,21.90
2022-12-24T05:51:35.954Z,21.80
2022-12-24T05:54:04.675Z,21.90
2022-12-24T05:56:33.046Z,21.80
2022-12-24T05:59:00.950Z,21.90
2022-12-24T06:01:28.891Z,21.90
2022-12-24T06:03:57.611Z,21.90
2022-12-24T06:06:27.364Z,21.90
2022-12-24T06:08:55.865Z,21.90
2022-12-24T06:11:26.451Z,21.90
2022-12-24T06:13:55.280Z,21.90
2022-12-24T06:16:25.352Z,21.90
2022-12-24T06:18:53.595Z,21.90
2022-12-24T06:21:22.858Z,21.80
2022-12-24T06:23:50.828Z,21.80
2022-12-24T06:26:21.003Z,21.90
2022-12-24T06:28:50.674Z,21.90
2022-12-24T06:31:21.467Z,21.80
2022-12-24T06:33:50.072Z,21.80
2022-12-24T06:36:21.445Z,21.90
2022-12-24T06:38:50.339Z,21.80
2022-12-24T06:41:18.815Z,21.80
2022-12-24T06:43:48.939Z,21.80
2022-12-24T06:46:17.658Z,21.80
2022-12-24T06:48:46.345Z,21.80
2022-12-24T06:51:15.692Z,21.80
2022-12-24T06:53:43.630Z,21.80
2022-12-24T06:56:13.524Z,21.80
2022-12-24T06:58:41.482Z,21.80
2022-12-24T07:01:12.610Z,21.80
2022-12-24T07:03:41.342Z,21.80
2022-12-24T07:06:22.096Z,21.80
2022-12-24T07:08:50.172Z,21.80
2022-12-24T07:11:18.368Z,21.80
2022-12-24T07:13:47.325Z,21.80
2022-12-24T07:16:15.579Z,21.80
2022-12-24T07:18:43.709Z,21.80
2022-12-24T07:21:11.557Z,21.80
2022-12-24T07:23:39.698Z,21.80
2022-12-24T07:26:08.615Z,21.80
2022-12-24T07:28:36.633Z,21.80
2022-12-24T07:31:04.739Z,21.80
2022-12-24T07:33:32.862Z,21.80
2022-12-24T07:36:02.790Z,21.80
2022-12-24T07:38:31.626Z,21.80
2022-12-24T07:40:59.834Z,21.80
2022-12-24T07:43:28.365Z,21.80
2022-12-24T07:45:57.971Z,21.80
2022-12-24T07:48:29.147Z,21.80
2022-12-24T07:50:57.914Z,21.80
2022-12-24T07:53:27.726Z,21.80
2022-12-24T07:55:56.334Z,21.80
2022-12-24T07:58:25.049Z,21.80
2022-12-24T08:01:00.207Z,21.80
2022-12-24T08:03:28.641Z,21.80
2022-12-24T08:05:58.651Z,21.80
2022-12-24T08:08:26.735Z,21.80
2022-12-24T08:10:54.926Z,21.80
2022-12-24T08:13:22.924Z,21.80
2022-12-24T08:15:51.070Z,21.80
2022-12-24T08:18:19.253Z,21.80
2022-12-24T08:20:47.448Z,21.80
2022-12-24T08:23:15.574Z,21.80
2022-12-24T08:25:46.067Z,21.80
2022-12-24T08:28:16.685Z,21.80
2022-12-24T08:30:45.403Z,21.80
2022-12-24T08:33:13.519Z,21.80
2022-12-24T08:35:41.556Z,21.80
2022-12-24T08:38:09.760Z,21.80
2022-12-24T08:40:37.771Z,21.80
2022-12-24T08:43:05.666Z,21.80
2022-12-24T08:45:39.863Z,21.80
2022-12-24T08:48:10.559Z,21.80
2022-12-24T08:50:42.454Z,21.80
2022-12-24T08:53:11.246Z,21.80
2022-12-24T08:55:39.765Z,21.80
2022-12-24T08:58:07.999Z,21.80
2022-12-24T09:00:35.908Z,21.80
2022-12-24T09:03:04.396Z,21.80
2022-12-24T09:05:32.659Z,21.80
2022-12-24T09:08:01.637Z,21.80
2022-12-24T09:10:29.663Z,21.80
2022-12-24T09:12:57.803Z,21.80
2022-12-24T09:15:25.736Z,21.80
2022-12-24T09:17:53.671Z,21.80
2022-12-24T09:20:21.713Z,21.80
2022-12-24T09:22:49.665Z,21.80
2022-12-24T09:25:17.965Z,21.80
2022-12-24T09:27:46.160Z,21.80
2022-12-24T09:30:14.731Z,21.80
2022-12-24T09:32:42.847Z,21.80
2022-12-24T09:35:10.815Z,21.80
2022-12-24T09:37:38.845Z,21.80
2022-12-24T09:40:07.582Z,21.80
2022-12-24T09:42:38.307Z,21.80
2022-12-24T09:45:23.630Z,21.80
2022-12-24T09:48:05.766Z,21.80
2022-12-24T09:50:48.461Z,21.80
2022-12-24T09:53:26.474Z,21.80
2022-12-24T09:55:58.566Z,21.80
2022-12-24T09:58:40.696Z,21.80
2022-12-24T10:01:13.640Z,21.80
2022-12-24T10:03:42.177Z,21.80
2022-12-24T10:06:29.802Z,21.80
2022-12-24T10:09:15.888Z,21.80
2022-12-24T10:12:01.788Z,21.80
2022-12-24T10:15:07.765Z,21.80
2022-12-24T10:17:50.917Z,21.80
2022-12-24T10:20:36.910Z,21.80
2022-12-24T10:23:42.251Z,21.80
2022-12-24T10:26:35.750Z,21.80
2022-12-24T10:29:20.302Z,21.80
2022-12-24T10:32:09.044Z,21.80
2022-12-24T10:34:50.153Z,21.80
2022-12-24T10:37:23.928Z,21.80
2022-12-24T10:39:53.090Z,21.80
2022-12-24T10:42:25.155Z,21.80
2022-12-24T10:44:57.559Z,21.80
2022-12-24T10:47:26.515Z,21.80
2022-12-24T10:50:18.826Z,21.80
2022-12-24T10:52:48.215Z,21.80
2022-12-24T10:55:19.114Z,21.70
2022-12-24T10:57:58.248Z,21.80
2022-12-24T11:00:31.918Z,21.80
2022-12-24T11:03:12.626Z,21.80
2022-12-24T11:05:41.144Z,21.80
2022-12-24T11:08:18.559Z,21.80
2022-12-24T11:11:00.170Z,21.80
2022-12-24T11:13:52.732Z,21.80
2022-12-24T11:16:35.841Z,21.80
2022-12-24T11:19:07.008Z,21.80
2022-12-24T11:21:39.002Z,21.70
2022-12-24T11:24:12.973Z,21.80
2022-12-24T11:26:42.450Z,21.70
2022-12-24T11:29:24.431Z,21.80
2022-12-24T11:31:53.092Z,21.70
2022-12-24T11:34:29.954Z,21.80
2022-12-24T11:37:18.310Z,21.80
2022-12-24T11:39:54.181Z,21.80
2022-12-24T11:42:37.137Z,21.80
2022-12-24T11:45:17.813Z,21.80
2022-12-24T11:47:46.419Z,21.80
2022-12-24T11:50:36.949Z,21.70
2022-12-24T11:53:05.034Z,21.70
2022-12-24T11:55:45.892Z,21.80
2022-12-24T11:58:31.552Z,21.80
2022-12-24T12:01:16.051Z,21.80
2022-12-24T12:03:49.732Z,21.80
2022-12-24T12:06:32.949Z,21.80
2022-12-24T12:09:06.241Z,21.70
2022-12-24T12:11:38.826Z,21.80
2022-12-24T12:14:15.252Z,21.70
2022-12-24T12:17:21.379Z,21.80
2022-12-24T12:20:05.970Z,21.80
2022-12-24T12:22:48.961Z,21.80
2022-12-24T12:25:33.035Z,21.70
2022-12-24T12:28:06.564Z,21.70
2022-12-24T12:30:37.462Z,21.70
2022-12-24T12:33:25.314Z,21.80
2022-12-24T12:35:56.017Z,21.80
2022-12-24T12:38:29.296Z,21.80
2022-12-24T12:41:14.626Z,21.80
2022-12-24T12:44:02.987Z,21.80
2022-12-24T12:47:08.179Z,21.80
2022-12-24T12:50:16.510Z,21.80
2022-12-24T12:52:44.440Z,21.80
2022-12-24T12:56:04.304Z,21.80
2022-12-24T12:58:46.799Z,21.80
2022-12-24T13:01:20.818Z,21.80
2022-12-24T13:04:06.873Z,21.80
2022-12-24T13:06:46.525Z,21.80
2022-12-24T13:09:40.504Z,21.80
2022-12-24T13:12:37.347Z,21.80
2022-12-24T13:15:29.220Z,21.80
2022-12-24T13:18:06.549Z,21.80
2022-12-24T13:20:40.664Z,21.80
2022-12-24T13:23:13.013Z,21.80
2022-12-24T13:25:47.323Z,21.80
2022-12-24T13:28:20.955Z,21.80
2022-12-24T13:30:51.330Z,21.80
2022-12-24T13:33:37.178Z,21.80
2022-12-24T13:36:17.163Z,21.80
2022-12-24T13:38:49.391Z,21.80
2022-12-24T13:41:40.704Z,21.80
2022-12-24T13:44:11.255Z,21.80
2022-12-24T13:46:48.516Z,21.80
2022-12-24T13:49:22.382Z,21.80
2022-12-24T13:51:51.241Z,21.80
2022-12-24T13:54:25.770Z,21.80
2022-12-24T13:56:54.063Z,21.80
2022-12-24T13:59:39.298Z,21.80
2022-12-24T14:02:21.679Z,21.80
2022-12-24T14:04:51.661Z,21.70
2022-12-24T14:07:20.958Z,21.70
2022-12-24T14:09:51.118Z,21.80
2022-12-24T14:12:45.978Z,21.80
2022-12-24T14:15:48.514Z,21.70
2022-12-24T14:18:23.716Z,21.80
2022-12-24T14:20:54.163Z,21.70
2022-12-24T14:23:36.577Z,21.80
2022-12-24T14:26:11.504Z,21.80
2022-12-24T14:28:49.171Z,21.70
2022-12-24T14:31:19.406Z,21.70
2022-12-24T14:33:48.954Z,21.70
2022-12-24T14:36:22.541Z,21.70
2022-12-24T14:38:51.221Z,21.70
2022-12-24T14:41:37.203Z,21.70
2022-12-24T14:44:29.676Z,21.70
2022-12-24T14:47:13.678Z,21.70
2022-12-24T14:50:29.706Z,21.70
2022-12-24T14:53:31.308Z,21.70
2022-12-24T14:55:59.481Z,21.70
2022-12-24T14:58:53.722Z,21.70
2022-12-24T15:01:26.391Z,21.70
2022-12-24T15:04:17.167Z,21.70
2022-12-24T15:06:52.873Z,21.70
2022-12-24T15:09:25.276Z,21.70
2022-12-24T15:11:56.644Z,21.70
2022-12-24T15:14:27.467Z,21.70
2022-12-24T15:17:04.371Z,21.70
2022-12-24T15:19:39.368Z,21.70
2022-12-24T15:22:23.712Z,21.70
2022-12-24T15:24:51.864Z,21.70
2022-12-24T15:27:26.036Z,21.70
2022-12-24T15:29:57.598Z,21.70
2022-12-24T15:32:25.921Z,21.70
2022-12-24T15:34:55.616Z,21.70
2022-12-24T15:37:37.366Z,21.70
2022-12-24T15:40:08.451Z,21.70
2022-12-24T15:42:37.287Z,21.70
2022-12-24T15:45:27.783Z,21.70
2022-12-24T15:48:00.631Z,21.70
2022-12-24T15:50:32.618Z,21.70
2022-12-24T15:53:20.675Z,21.70
2022-12-24T15:56:04.819Z,21.70
2022-12-24T15:58:39.468Z,21.70
2022-12-24T16:01:28.583Z,21.70
2022-12-24T16:03:58.573Z,21.70
2022-12-24T16:06:28.522Z,21.70
2022-12-24T16:08:56.944Z,21.70
2022-12-24T16:11:33.481Z,21.70
2022-12-24T16:14:04.604Z,21.70
2022-12-24T16:16:36.088Z,21.60
2022-12-24T16:19:07.223Z,21.60
2022-12-24T16:21:41.385Z,21.60
2022-12-24T16:24:16.635Z,21.60
2022-12-24T16:26:45.508Z,21.60
2022-12-24T16:29:14.001Z,21.60
2022-12-24T16:31:53.871Z,21.60
2022-12-24T16:34:25.745Z,21.60
2022-12-24T16:36:54.321Z,21.60
2022-12-24T16:39:31.688Z,21.70
2022-12-24T16:42:20.580Z,21.60
2022-12-24T16:44:48.783Z,21.60
2022-12-24T16:47:24.211Z,21.60
2022-12-24T16:49:52.003Z,21.60
2022-12-24T16:52:26.503Z,21.60
2022-12-24T16:54:55.106Z,21.60
2022-12-24T16:57:24.414Z,21.60
2022-12-24T16:59:53.787Z,21.60
2022-12-24T17:02:23.856Z,21.60
2022-12-24T17:04:52.619Z,21.60
2022-12-24T17:07:22.174Z,21.60
2022-12-24T17:09:50.050Z,21.60
2022-12-24T17:12:18.193Z,21.60
2022-12-24T17:14:46.360Z,21.60
2022-12-24T17:17:25.753Z,21.60
2022-12-24T17:19:54.865Z,21.60
2022-12-24T17:22:23.593Z,21.60
2022-12-24T17:24:51.628Z,21.60
2022-12-24T17:27:20.138Z,21.60
2022-12-24T17:29:48.034Z,21.60
2022-12-24T17:32:16.493Z,21.60
2022-12-24T17:34:44.763Z,21.60
2022-12-24T17:37:12.806Z,21.60
2022-12-24T17:39:40.688Z,21.60
2022-12-24T17:42:08.685Z,21.60
2022-12-24T17:44:36.743Z,21.60
2022-12-24T17:47:05.489Z,21.60
2022-12-24T17:49:33.677Z,21.60
2022-12-24T17:52:01.770Z,21.60
2022-12-24T17:54:29.948Z,21.60
2022-12-24T17:56:58.918Z,21.60
2022-12-24T17:59:27.083Z,21.60
2022-12-24T18:01:55.103Z,21.60
2022-12-24T18:04:23.335Z,21.60
2022-12-24T18:06:57.684Z,21.50
2022-12-24T18:09:29.940Z,21.60
2022-12-24T18:11:57.904Z,21.60
2022-12-24T18:14:25.836Z,21.60
2022-12-24T18:16:53.814Z,21.50
2022-12-24T18:19:21.991Z,21.60
2022-12-24T18:21:50.018Z,21.60
2022-12-24T18:24:18.147Z,21.60
2022-12-24T18:26:46.809Z,21.60
2022-12-24T18:29:15.651Z,21.60
2022-12-24T18:31:43.973Z,21.50
2022-12-24T18:34:13.972Z,21.60
2022-12-24T18:36:42.260Z,21.50
2022-12-24T18:39:10.378Z,21.50
2022-12-24T18:41:38.367Z,21.50
2022-12-24T18:44:06.848Z,21.50
2022-12-24T18:46:34.940Z,21.50
2022-12-24T18:49:03.167Z,21.50
2022-12-24T18:51:34.498Z,21.50
2022-12-24T18:54:03.135Z,21.50
2022-12-24T18:56:31.793Z,21.50
2022-12-24T18:59:01.805Z,21.50
2022-12-24T19:01:32.664Z,21.50
2022-12-24T19:04:01.605Z,21.50
2022-12-24T19:06:29.862Z,21.50
2022-12-24T19:09:00.414Z,21.50
2022-12-24T19:11:33.891Z,21.50
2022-12-24T19:14:03.391Z,21.50
2022-12-24T19:16:34.227Z,21.60
2022-12-24T19:19:03.713Z,21.60
2022-12-24T19:21:32.508Z,21.50
2022-12-24T19:24:00.756Z,21.50
2022-12-24T19:26:28.765Z,21.60
2022-12-24T19:28:56.797Z,21.60
2022-12-24T19:31:26.542Z,21.50
2022-12-24T19:33:56.794Z,21.60
2022-12-24T19:36:27.804Z,21.50
2022-12-24T19:38:56.765Z,21.50
2022-12-24T19:41:29.089Z,21.50
2022-12-24T19:44:02.486Z,21.50
2022-12-24T19:46:33.229Z,21.50
2022-12-24T19:49:05.479Z,21.50
2022-12-24T19:51:34.810Z,21.50
2022-12-24T19:54:03.850Z,21.50
2022-12-24T19:56:33.224Z,21.50
2022-12-24T19:59:01.954Z,21.50
2022-12-24T20:01:31.721Z,21.50
2022-12-24T20:04:00.863Z,21.50
2022-12-24T20:06:32.511Z,21.50
2022-12-24T20:09:05.595Z,21.50
2022-12-24T20:11:34.502Z,21.50
2022-12-24T20:14:04.562Z,21.50
2022-12-24T20:16:33.121Z,21.50
2022-12-24T20:19:04.804Z,21.50
2022-12-24T20:21:33.534Z,21.50
2022-12-24T20:24:01.509Z,21.50
2022-12-24T20:26:30.364Z,21.50
2022-12-24T20:28:58.528Z,21.50
2022-12-24T20:31:28.776Z,21.50
2022-12-24T20:33:58.020Z,21.50
2022-12-24T20:36:27.620Z,21.50
2022-12-24T20:38:56.339Z,21.50
2022-12-24T20:41:27.214Z,21.50
2022-12-24T20:43:56.982Z,21.50
2022-12-24T20:46:25.091Z,21.40
2022-12-24T20:48:53.402Z,21.50
2022-12-24T20:51:25.327Z,21.40
2022-12-24T20:53:55.778Z,21.50
2022-12-24T20:56:24.582Z,21.50
2022-12-24T20:58:52.839Z,21.50
2022-12-24T21:01:24.795Z,21.50
2022-12-24T21:03:54.287Z,21.40
2022-12-24T21:06:24.294Z,21.50
2022-12-24T21:08:53.592Z,21.50
2022-12-24T21:11:41.188Z,21.50
2022-12-24T21:14:10.473Z,21.50
2022-12-24T21:16:40.306Z,21.50
2022-12-24T21:19:10.338Z,21.50
2022-12-24T21:21:38.348Z,21.50
2022-12-24T21:24:07.091Z,21.50
2022-12-24T21:26:35.096Z,21.50
2022-12-24T21:29:04.843Z,21.50
2022-12-24T21:31:33.342Z,21.50
2022-12-24T21:34:01.305Z,21.50
2022-12-24T21:36:30.754Z,21.40
2022-12-24T21:38:58.679Z,21.50
2022-12-24T21:41:27.515Z,21.40
2022-12-24T21:43:56.009Z,21.50
2022-12-24T21:46:25.896Z,21.40
2022-12-24T21:49:14.005Z,21.50
2022-12-24T21:51:44.206Z,21.40
2022-12-24T21:54:27.532Z,21.40
2022-12-24T21:57:16.637Z,21.40
2022-12-24T21:59:45.673Z,21.40
2022-12-24T22:02:15.319Z,21.50
2022-12-24T22:04:44.138Z,21.50
2022-12-24T22:07:46.036Z,21.40
2022-12-24T22:10:33.273Z,21.40
2022-12-24T22:13:06.333Z,21.40
2022-12-24T22:15:35.804Z,21.40
2022-12-24T22:18:03.896Z,21.40
2022-12-24T22:20:31.887Z,21.40
2022-12-24T22:22:59.967Z,21.50
2022-12-24T22:25:30.064Z,21.50
2022-12-24T22:27:58.356Z,21.40
2022-12-24T22:30:27.306Z,21.40
2022-12-24T22:32:55.306Z,21.40
2022-12-24T22:35:23.325Z,21.40
2022-12-24T22:37:56.101Z,21.50
2022-12-24T22:40:28.292Z,21.40
2022-12-24T22:42:56.423Z,21.40
2022-12-24T22:45:24.455Z,21.40
2022-12-24T22:47:52.491Z,21.40
2022-12-24T22:50:20.631Z,21.40
2022-12-24T22:52:48.560Z,21.40
2022-12-24T22:55:16.801Z,21.40
2022-12-24T22:57:44.950Z,21.40
2022-12-24T23:00:36.709Z,21.40
2022-12-24T23:03:05.908Z,21.40
2022-12-24T23:05:34.048Z,21.40
2022-12-24T23:08:02.093Z,21.40
2022-12-24T23:10:30.413Z,21.40
2022-12-24T23:13:16.800Z,21.40
2022-12-24T23:15:45.059Z,21.40
2022-12-24T23:18:13.277Z,21.40
2022-12-24T23:20:46.927Z,21.40
2022-12-24T23:23:15.823Z,21.40
2022-12-24T23:25:43.844Z,21.40
2022-12-24T23:28:11.893Z,21.40
2022-12-24T23:30:39.827Z,21.40
2022-12-24T23:33:07.774Z,21.40
2022-12-24T23:35:35.860Z,21.40
2022-12-24T23:38:03.880Z,21.40
2022-12-24T23:40:31.824Z,21.40
2022-12-24T23:42:59.912Z,21.40
2022-12-24T23:45:27.707Z,21.40
2022-12-24T23:47:55.619Z,21.40
2022-12-24T23:50:23.522Z,21.40
2022-12-24T23:52:51.630Z,21.40
2022-12-24T23:55:19.576Z,21.40
2022-12-24T23:57:47.483Z,21.40
